WetterOnline ( https://www.wetteronline.de )

Wetter aktuell Mannheim

Aktuelles Wetter: Mannheim (100m)

6-stündlich | Neueste Meldungen
Ortszeit Temperatur Wetter
Fr, 12.04. 14:00 19.7° C fast wolkenlos
Fr, 12.04. 8:00 8.1° C wolkenlos
Fr, 12.04. 2:00 6.7° C wolkig
Do, 11.04. 20:00 16.3° C wolkig
Do, 11.04. 14:00 16.5° C leicht bewölkt
Do, 11.04. 8:00 5.1° C wolkenlos
Do, 11.04. 2:00 4.2° C wolkenlos
Mi, 10.04. 20:00 11.8° C wolkenlos
Ortszeit Temperatur Wetter
Fr, 12.04. 16:00 19.7° C wolkig
Fr, 12.04. 15:50 19.7° C wolkig
Fr, 12.04. 15:40 20.0° C bewölkt
Fr, 12.04. 15:30 19.3° C leicht bewölkt
Fr, 12.04. 15:20 19.3° C leicht bewölkt
Fr, 12.04. 15:10 19.9° C leicht bewölkt
Fr, 12.04. 15:00 19.4° C wolkig
Fr, 12.04. 14:30 19.6° C wolkig
Fr, 12.04. 14:00 19.7° C fast wolkenlos
Fr, 12.04. 13:30 19.5° C leicht bewölkt
Fr, 12.04. 13:00 18.4° C leicht bewölkt
Ortszeit Relative Feuchte Sichtweite
Fr, 12.04. 14:00 50% 40 km
Fr, 12.04. 8:00 79% 45 km
Fr, 12.04. 2:00 87% 50 km
Do, 11.04. 20:00 45% 40 km
Do, 11.04. 14:00 38% >70 km
Do, 11.04. 8:00 86% 45 km
Do, 11.04. 2:00 86% 45 km
Mi, 10.04. 20:00 52% 55 km
Ortszeit Relative Feuchte Sichtweite
Fr, 12.04. 16:00 56% 65 km
Fr, 12.04. 15:50 56% -
Fr, 12.04. 15:40 57% -
Fr, 12.04. 15:30 58% 55 km
Fr, 12.04. 15:20 58% -
Fr, 12.04. 15:10 56% -
Fr, 12.04. 15:00 56% 50 km
Fr, 12.04. 14:30 52% 50 km
Fr, 12.04. 14:00 50% 40 km
Fr, 12.04. 13:30 50% 35 km
Fr, 12.04. 13:00 49% 60 km
Ortszeit Niederschlagsmenge Niederschlagsart
Fr, 12.04. 14:00 0.0 l/m2 in 6 Std. -
Fr, 12.04. 8:00 0.0 l/m2 in 12 Std. -
Fr, 12.04. 2:00 0.0 l/m2 in 6 Std. -
Do, 11.04. 20:00 0.0 l/m2 in 12 Std. -
Do, 11.04. 14:00 0.0 l/m2 in 6 Std. -
Do, 11.04. 8:00 0.0 l/m2 in 12 Std. -
Do, 11.04. 2:00 0.0 l/m2 in 6 Std. -
Mi, 10.04. 20:00 0.0 l/m2 in 12 Std. -
Ortszeit Niederschlagsmenge Niederschlagsart
Fr, 12.04. 16:00 0.0 l/m2 in 1 Std. -
Fr, 12.04. 15:50 keine Meldung -
Fr, 12.04. 15:40 keine Meldung -
Fr, 12.04. 15:30 0.0 l/m2 in 30 Min -
Fr, 12.04. 15:20 keine Meldung -
Fr, 12.04. 15:10 keine Meldung -
Fr, 12.04. 15:00 0.0 l/m2 in 1 Std. -
Fr, 12.04. 14:30 0.0 l/m2 in 30 Min -
Fr, 12.04. 14:00 0.0 l/m2 in 1 Std. -
Fr, 12.04. 13:30 0.0 l/m2 in 30 Min -
Fr, 12.04. 13:00 0.0 l/m2 in 1 Std. -
Ortszeit Stärke Spitze Richtung
km/h Bft. km/h Grad Sektor
Fr, 12.04. 14:00 6 1 17 120° SO
Fr, 12.04. 8:00 4 1 11 110° O
Fr, 12.04. 2:00 2 1 6 110° O
Do, 11.04. 20:00 6 1 15 40° NO
Do, 11.04. 14:00 7 2 25 130° SO
Do, 11.04. 8:00 0 0 7 - -
Do, 11.04. 2:00 4 1 11 50° NO
Mi, 10.04. 20:00 0 0 22 - -
Ortszeit Stärke Spitze Richtung
km/h Bft. km/h Grad Sektor
Fr, 12.04. 16:00 9 2 22 290° W
Fr, 12.04. 15:50 9 2 - 290° W
Fr, 12.04. 15:40 11 2 - 290° W
Fr, 12.04. 15:30 7 2 22 260° W
Fr, 12.04. 15:20 7 2 - 260° W
Fr, 12.04. 15:10 9 2 - 280° W
Fr, 12.04. 15:00 14 3 25 320° NW
Fr, 12.04. 14:30 7 2 25 260° W
Fr, 12.04. 14:00 6 1 17 120° SO
Fr, 12.04. 13:30 6 1 15 340° N
Fr, 12.04. 13:00 6 1 15 240° SW
Ortszeit Untergrenze Bedeckung Gattung
total tief tief mittel hoch
Fr, 12.04. 14:00 10500 m 2/8 0/8 - - -
Fr, 12.04. 8:00 - 0/8 0/8 - - -
Fr, 12.04. 2:00 4800 m 8/8 1/8 - - -
Do, 11.04. 20:00 9000 m 7/8 0/8 - - -
Do, 11.04. 14:00 7800 m 7/8 0/8 - - -
Do, 11.04. 8:00 - 0/8 0/8 - - -
Do, 11.04. 2:00 - 0/8 0/8 - - -
Mi, 10.04. 20:00 - 0/8 0/8 - - -
Ortszeit Bedeckungsgrad in Achtel und Wolkenuntergrenze
Fr, 12.04. 16:00 4(1200m) 7(9000m)
Fr, 12.04. 15:50 4(1200m) 7(9000m)
Fr, 12.04. 15:40 7
Fr, 12.04. 15:30 3(1170m) 4(9000m)
Fr, 12.04. 15:20 3(1170m) 4(9000m)
Fr, 12.04. 15:10 2
Fr, 12.04. 15:00 5(1260m) 5(9000m)
Fr, 12.04. 14:30 5(1320m)
Fr, 12.04. 14:00 2(10500m)
Fr, 12.04. 13:30 5(7800m)
Fr, 12.04. 13:00 4(10500m)
Ortszeit Luftdruck NN (hPa) Tendenz (hPa in 3 Std.)
Fr, 12.04. 14:00 1033 - 1,0
Fr, 12.04. 8:00 1034 + 0,3
Fr, 12.04. 2:00 1034 + 0,1
Do, 11.04. 20:00 1033 - 0,2
Do, 11.04. 14:00 1034 - 0,5
Do, 11.04. 8:00 1035 + 1,2
Do, 11.04. 2:00 1033 + 0,3
Mi, 10.04. 20:00 1031 + 0,7
Ortszeit Luftdruck NN (hPa) Tendenz (hPa in 3 Std.)
Fr, 12.04. 16:00 1032 - 1,5
Fr, 12.04. 15:50 1032 keine Meldung
Fr, 12.04. 15:40 1032 keine Meldung
Fr, 12.04. 15:30 1032 - 1,3
Fr, 12.04. 15:20 1032 keine Meldung
Fr, 12.04. 15:10 1032 keine Meldung
Fr, 12.04. 15:00 1033 - 1,0
Fr, 12.04. 14:30 1033 - 1,0
Fr, 12.04. 14:00 1033 - 1,0
Fr, 12.04. 13:30 1033 - 0,9
Fr, 12.04. 13:00 1033 - 0,7
Ortszeit Schneehöhe (cm)
Fr, 12.04. 14:00 0
Fr, 12.04. 8:00 0
Fr, 12.04. 2:00 0
Do, 11.04. 20:00 0
Do, 11.04. 14:00 0
Do, 11.04. 8:00 0
Do, 11.04. 2:00 0
Mi, 10.04. 20:00 0
Ortszeit Schneehöhe (cm)
Fr, 12.04. 16:00 0
Fr, 12.04. 15:50 0
Fr, 12.04. 15:40 -
Fr, 12.04. 15:30 0
Fr, 12.04. 15:20 0
Fr, 12.04. 15:10 -
Fr, 12.04. 15:00 0
Fr, 12.04. 14:30 0
Fr, 12.04. 14:00 0
Fr, 12.04. 13:30 0
Fr, 12.04. 13:00 0
Link zu dieser Seite / Seite empfehlen

Das Wetter in ...